createdAt,value
2019-05-29T00:01:10.604Z,84.30
2019-05-29T00:03:37.273Z,84.10
2019-05-29T00:06:06.188Z,84.50
2019-05-29T00:08:35.367Z,84.70
2019-05-29T00:11:03.817Z,85.00
2019-05-29T00:13:32.296Z,84.90
2019-05-29T00:16:01.104Z,84.80
2019-05-29T00:18:29.587Z,84.70
2019-05-29T00:20:58.042Z,85.20
2019-05-29T00:23:26.552Z,85.20
2019-05-29T00:25:55.081Z,84.60
2019-05-29T00:28:23.538Z,85.00
2019-05-29T00:30:52.089Z,85.10
2019-05-29T00:33:20.559Z,85.20
2019-05-29T00:35:49.132Z,85.40
2019-05-29T00:38:17.614Z,85.90
2019-05-29T00:40:46.093Z,85.80
2019-05-29T00:43:15.458Z,85.90
2019-05-29T00:45:44.328Z,86.10
2019-05-29T00:48:13.988Z,85.80
2019-05-29T00:50:42.773Z,85.60
2019-05-29T00:53:12.150Z,85.50
2019-05-29T00:55:41.810Z,85.50
2019-05-29T00:58:10.748Z,85.90
2019-05-29T01:00:39.399Z,85.80
2019-05-29T01:03:07.929Z,86.10
2019-05-29T01:05:36.403Z,85.80
2019-05-29T01:08:05.334Z,85.80
2019-05-29T01:10:33.793Z,85.40
2019-05-29T01:13:02.284Z,85.40
2019-05-29T01:15:30.738Z,85.20
2019-05-29T01:17:59.303Z,85.20
2019-05-29T01:20:28.029Z,86.10
2019-05-29T01:22:56.561Z,85.70
2019-05-29T01:25:25.042Z,85.40
2019-05-29T01:27:53.508Z,86.50
2019-05-29T01:30:23.301Z,86.90
2019-05-29T01:32:52.083Z,86.70
2019-05-29T01:35:20.548Z,86.50
2019-05-29T01:37:49.106Z,86.60
2019-05-29T01:40:22.946Z,86.60
2019-05-29T01:42:49.939Z,86.50
2019-05-29T01:45:18.032Z,85.90
2019-05-29T01:47:46.517Z,84.80
2019-05-29T01:50:15.573Z,85.10
2019-05-29T01:52:46.408Z,85.60
2019-05-29T01:55:15.730Z,86.10
2019-05-29T01:57:44.611Z,86.60
2019-05-29T02:00:15.714Z,87.00
2019-05-29T02:02:44.478Z,88.10
2019-05-29T02:05:13.187Z,88.10
2019-05-29T02:07:41.975Z,87.80
2019-05-29T02:10:10.576Z,87.80
2019-05-29T02:12:39.130Z,88.10
2019-05-29T02:15:23.078Z,88.40
2019-05-29T02:17:40.296Z,88.60
2019-05-29T02:20:09.524Z,89.10
2019-05-29T02:22:38.119Z,89.80
2019-05-29T02:25:10.408Z,89.80
2019-05-29T02:27:38.879Z,90.10
2019-05-29T02:30:08.484Z,90.30
2019-05-29T02:32:37.407Z,90.20
2019-05-29T02:35:06.917Z,90.20
2019-05-29T02:37:35.471Z,90.00
2019-05-29T02:40:07.008Z,90.00
2019-05-29T02:42:36.161Z,89.60
2019-05-29T02:45:08.099Z,88.90
2019-05-29T02:47:36.710Z,88.30
2019-05-29T02:50:07.920Z,87.80
2019-05-29T02:52:36.377Z,86.70
2019-05-29T02:55:07.692Z,86.70
2019-05-29T02:57:36.232Z,86.60
2019-05-29T03:00:06.745Z,86.40
2019-05-29T03:02:35.228Z,86.10
2019-05-29T03:05:05.925Z,86.60
2019-05-29T03:07:35.129Z,87.10
2019-05-29T03:10:08.437Z,87.10
2019-05-29T03:12:37.716Z,87.00
2019-05-29T03:15:06.917Z,86.60
2019-05-29T03:17:35.385Z,86.50
2019-05-29T03:20:08.445Z,87.80
2019-05-29T03:22:37.203Z,88.30
2019-05-29T03:25:07.309Z,89.40
2019-05-29T03:27:35.990Z,89.60
2019-05-29T03:30:06.482Z,89.60
2019-05-29T03:32:45.650Z,89.40
2019-05-29T03:35:06.750Z,89.30
2019-05-29T03:37:35.245Z,89.50
2019-05-29T03:40:08.999Z,89.40
2019-05-29T03:42:38.979Z,89.60
2019-05-29T03:45:08.268Z,89.60
2019-05-29T03:47:37.239Z,89.70
2019-05-29T03:50:07.444Z,89.40
2019-05-29T03:52:36.001Z,88.90
2019-05-29T03:55:06.970Z,88.50
2019-05-29T03:57:35.870Z,88.50
2019-05-29T04:00:08.075Z,88.40
2019-05-29T04:02:38.222Z,88.30
2019-05-29T04:05:07.285Z,88.20
2019-05-29T04:07:37.776Z,88.10
2019-05-29T04:10:08.010Z,88.00
2019-05-29T04:12:38.052Z,88.00
2019-05-29T04:15:07.583Z,88.30
2019-05-29T04:17:38.373Z,88.30
2019-05-29T04:20:07.433Z,88.40
2019-05-29T04:22:39.074Z,88.80
2019-05-29T04:25:08.340Z,89.20
2019-05-29T04:27:39.805Z,89.00
2019-05-29T04:30:09.242Z,88.30
2019-05-29T04:32:38.601Z,88.20
2019-05-29T04:35:09.168Z,87.70
2019-05-29T04:37:39.910Z,87.90
2019-05-29T04:40:08.754Z,88.20
2019-05-29T04:42:38.160Z,87.00
2019-05-29T04:45:09.210Z,86.50
2019-05-29T04:47:39.321Z,85.70
2019-05-29T04:50:08.622Z,85.40
2019-05-29T04:52:37.900Z,86.10
2019-05-29T04:55:08.048Z,86.80
2019-05-29T04:57:37.225Z,87.00
2019-05-29T05:00:07.212Z,87.30
2019-05-29T05:02:35.729Z,85.60
2019-05-29T05:05:07.850Z,81.70
2019-05-29T05:07:37.344Z,82.40
2019-05-29T05:10:07.606Z,79.90
2019-05-29T05:12:37.863Z,80.00
2019-05-29T05:15:07.672Z,79.20
2019-05-29T05:17:36.196Z,77.80
2019-05-29T05:20:05.977Z,78.90
2019-05-29T05:22:34.589Z,78.10
2019-05-29T05:25:03.798Z,77.60
2019-05-29T05:27:32.290Z,76.90
2019-05-29T05:30:00.769Z,75.50
2019-05-29T05:32:30.495Z,75.60
2019-05-29T05:34:59.152Z,75.70
2019-05-29T05:37:27.653Z,76.30
2019-05-29T05:39:56.142Z,73.70
2019-05-29T05:42:24.876Z,72.50
2019-05-29T05:44:53.429Z,72.40
2019-05-29T05:47:21.941Z,70.00
2019-05-29T05:49:50.419Z,72.30
2019-05-29T05:52:18.900Z,70.60
2019-05-29T05:54:47.434Z,71.10
2019-05-29T05:57:15.926Z,72.20
2019-05-29T05:59:44.411Z,73.70
2019-05-29T06:02:12.962Z,75.00
2019-05-29T06:04:42.128Z,73.80
2019-05-29T06:07:10.767Z,72.70
2019-05-29T06:09:40.434Z,73.10
2019-05-29T06:12:08.963Z,72.90
2019-05-29T06:14:38.466Z,73.00
2019-05-29T06:17:07.209Z,72.10
2019-05-29T06:19:36.729Z,72.60
2019-05-29T06:22:05.854Z,74.00
2019-05-29T06:24:34.981Z,74.30
2019-05-29T06:27:03.878Z,74.80
2019-05-29T06:29:33.514Z,73.20
2019-05-29T06:32:02.375Z,73.20
2019-05-29T06:34:30.932Z,73.70
2019-05-29T06:36:59.500Z,72.90
2019-05-29T06:39:27.965Z,74.00
2019-05-29T06:41:56.461Z,72.90
2019-05-29T06:44:25.333Z,72.00
2019-05-29T06:46:56.936Z,72.10
2019-05-29T06:49:27.339Z,72.20
2019-05-29T06:51:55.817Z,72.40
2019-05-29T06:54:24.311Z,72.30
2019-05-29T06:56:52.830Z,70.70
2019-05-29T06:59:21.589Z,70.00
2019-05-29T07:01:50.128Z,70.90
2019-05-29T07:04:18.605Z,69.20
2019-05-29T07:06:47.099Z,68.20
2019-05-29T07:09:15.814Z,67.30
2019-05-29T07:11:45.416Z,65.50
2019-05-29T07:14:14.050Z,64.70
2019-05-29T07:16:49.820Z,62.20
2019-05-29T07:19:47.097Z,62.60
2019-05-29T07:21:43.407Z,65.20
2019-05-29T07:24:13.194Z,65.70
2019-05-29T07:26:43.082Z,67.00
2019-05-29T07:29:11.960Z,69.40
2019-05-29T07:31:42.934Z,66.70
2019-05-29T07:34:11.541Z,67.50
2019-05-29T07:36:40.072Z,69.20
2019-05-29T07:39:08.589Z,68.80
2019-05-29T07:41:37.442Z,65.40
2019-05-29T07:44:06.282Z,67.00
2019-05-29T07:46:35.026Z,66.20
2019-05-29T07:49:03.915Z,61.40
2019-05-29T07:51:32.726Z,63.90
2019-05-29T07:54:01.185Z,60.50
2019-05-29T07:56:31.493Z,62.90
2019-05-29T07:59:02.944Z,59.10
2019-05-29T08:01:30.630Z,58.30
2019-05-29T08:03:59.376Z,54.60
2019-05-29T08:06:27.971Z,52.40
2019-05-29T08:08:56.549Z,54.60
2019-05-29T08:11:25.140Z,51.40
2019-05-29T08:13:53.771Z,50.80
2019-05-29T08:16:24.456Z,49.70
2019-05-29T08:18:53.275Z,50.30
2019-05-29T08:21:21.986Z,50.50
2019-05-29T08:23:50.839Z,54.00
2019-05-29T08:26:19.594Z,49.70
2019-05-29T08:28:48.917Z,48.10
2019-05-29T08:31:17.965Z,51.90
2019-05-29T08:33:46.814Z,50.50
2019-05-29T08:36:15.437Z,50.90
2019-05-29T08:38:45.735Z,52.80
2019-05-29T08:41:14.577Z,54.70
2019-05-29T08:43:44.811Z,52.10
2019-05-29T08:46:13.340Z,52.90
2019-05-29T08:48:41.895Z,50.80
2019-05-29T08:51:10.454Z,51.00
2019-05-29T08:53:38.927Z,49.60
2019-05-29T08:56:07.750Z,51.40
2019-05-29T08:58:37.386Z,53.00
2019-05-29T09:01:06.511Z,54.10
2019-05-29T09:03:35.386Z,50.90
2019-05-29T09:06:08.937Z,49.80
2019-05-29T09:08:34.213Z,50.50
2019-05-29T09:11:02.846Z,44.90
2019-05-29T09:13:31.759Z,48.60
2019-05-29T09:16:00.245Z,46.80
2019-05-29T09:18:28.726Z,47.50
2019-05-29T09:21:03.188Z,49.90
2019-05-29T09:23:27.532Z,47.30
2019-05-29T09:26:13.236Z,48.90
2019-05-29T09:28:25.146Z,47.90
2019-05-29T09:30:53.680Z,50.20
2019-05-29T09:33:23.537Z,48.40
2019-05-29T09:35:52.449Z,48.30
2019-05-29T09:38:21.025Z,50.20
2019-05-29T09:40:52.577Z,48.00
2019-05-29T09:43:19.912Z,46.60
2019-05-29T09:45:50.735Z,47.20
2019-05-29T09:48:23.403Z,46.40
2019-05-29T09:50:50.855Z,43.70
2019-05-29T09:53:19.597Z,45.20
2019-05-29T09:55:48.088Z,46.20
2019-05-29T09:58:16.634Z,43.60
2019-05-29T10:00:45.912Z,42.80
2019-05-29T10:03:14.373Z,44.40
2019-05-29T10:05:43.137Z,40.80
2019-05-29T10:08:11.658Z,42.40
2019-05-29T10:10:40.162Z,43.80
2019-05-29T10:13:08.690Z,43.80
2019-05-29T10:15:37.223Z,43.50
2019-05-29T10:18:10.006Z,42.60
2019-05-29T10:20:36.224Z,41.10
2019-05-29T10:23:05.201Z,41.10
2019-05-29T10:25:33.742Z,41.50
2019-05-29T10:28:05.838Z,36.40
2019-05-29T10:30:32.499Z,36.30
2019-05-29T10:33:01.024Z,38.10
2019-05-29T10:35:29.588Z,36.50
2019-05-29T10:37:58.128Z,37.40
2019-05-29T10:40:26.591Z,41.00
2019-05-29T10:42:55.118Z,40.40
2019-05-29T10:45:23.742Z,40.60
2019-05-29T10:47:52.453Z,44.10
2019-05-29T10:50:23.698Z,43.80
2019-05-29T10:52:52.253Z,44.40
2019-05-29T10:55:22.995Z,42.00
2019-05-29T10:57:53.120Z,42.50
2019-05-29T11:00:22.388Z,41.90
2019-05-29T11:02:53.475Z,42.30
2019-05-29T11:05:21.170Z,43.40
2019-05-29T11:07:49.749Z,41.80
2019-05-29T11:10:18.462Z,43.00
2019-05-29T11:12:48.309Z,44.00
2019-05-29T11:15:21.760Z,38.30
2019-05-29T11:17:49.172Z,38.30
2019-05-29T11:20:19.428Z,36.40
2019-05-29T11:22:47.908Z,36.30
2019-05-29T11:25:23.593Z,35.80
2019-05-29T11:27:48.414Z,37.40
2019-05-29T11:30:17.440Z,40.50
2019-05-29T11:32:47.673Z,41.80
2019-05-29T11:35:16.695Z,45.20
2019-05-29T11:37:45.175Z,41.50
2019-05-29T11:40:14.182Z,41.20
2019-05-29T11:42:42.655Z,40.70
2019-05-29T11:45:12.279Z,41.10
2019-05-29T11:47:40.838Z,42.10
2019-05-29T11:50:19.346Z,41.00
2019-05-29T11:52:43.852Z,40.50
2019-05-29T11:55:14.445Z,41.20
2019-05-29T11:57:43.032Z,41.00
2019-05-29T12:00:20.308Z,41.90
2019-05-29T12:02:45.218Z,42.30
2019-05-29T12:05:15.543Z,42.00
2019-05-29T12:07:44.151Z,42.00
2019-05-29T12:10:17.197Z,41.90
2019-05-29T12:12:45.354Z,41.50
2019-05-29T12:15:17.921Z,38.00
2019-05-29T12:17:45.421Z,40.20
2019-05-29T12:20:27.017Z,39.80
2019-05-29T12:23:11.143Z,41.70
2019-05-29T12:25:15.190Z,40.80
2019-05-29T12:27:52.610Z,40.00
2019-05-29T12:30:19.099Z,39.40
2019-05-29T12:32:47.633Z,38.80
2019-05-29T12:35:16.355Z,38.80
2019-05-29T12:37:44.843Z,36.00
2019-05-29T12:40:13.716Z,36.30
2019-05-29T12:42:44.935Z,37.10
2019-05-29T12:45:14.504Z,37.90
2019-05-29T12:47:43.090Z,39.70
2019-05-29T12:50:13.130Z,39.30
2019-05-29T12:52:42.300Z,39.00
2019-05-29T12:55:12.407Z,38.70
2019-05-29T12:57:40.932Z,39.00
2019-05-29T13:00:11.656Z,39.60
2019-05-29T13:02:42.428Z,39.60
2019-05-29T13:05:19.319Z,41.00
2019-05-29T13:07:45.161Z,40.90
2019-05-29T13:10:29.424Z,38.90
2019-05-29T13:12:45.588Z,39.00
2019-05-29T13:15:15.665Z,40.00
2019-05-29T13:17:44.437Z,40.20
2019-05-29T13:20:21.818Z,41.30
2019-05-29T13:22:45.630Z,39.70
2019-05-29T13:25:14.592Z,39.80
2019-05-29T13:27:43.224Z,41.40
2019-05-29T13:30:14.147Z,42.40
2019-05-29T13:32:44.325Z,41.80
2019-05-29T13:35:14.175Z,42.20
2019-05-29T13:37:43.849Z,40.80
2019-05-29T13:40:14.170Z,41.10
2019-05-29T13:42:44.292Z,40.00
2019-05-29T13:45:18.110Z,40.90
2019-05-29T13:47:46.870Z,41.00
2019-05-29T13:50:18.178Z,41.30
2019-05-29T13:52:48.330Z,39.90
2019-05-29T13:55:17.250Z,39.80
2019-05-29T13:57:46.982Z,37.80
2019-05-29T14:00:32.619Z,35.70
2019-05-29T14:02:48.162Z,38.60
2019-05-29T14:05:18.031Z,39.20
2019-05-29T14:07:47.851Z,38.00
2019-05-29T14:10:21.114Z,38.50
2019-05-29T14:59:26.376Z,33.90
2019-05-29T15:01:59.739Z,32.90
2019-05-29T15:04:28.351Z,32.80
2019-05-29T15:06:56.954Z,33.50
2019-05-29T15:09:25.489Z,33.60
2019-05-29T15:11:54.115Z,34.80
2019-05-29T15:14:22.777Z,35.20
2019-05-29T15:16:51.736Z,35.80
2019-05-29T15:19:20.289Z,37.30
2019-05-29T15:21:48.906Z,37.80
2019-05-29T15:24:17.568Z,37.60
2019-05-29T15:26:46.477Z,36.70
2019-05-29T15:29:17.924Z,36.50
2019-05-29T15:31:45.444Z,37.60
2019-05-29T15:34:14.447Z,38.50
2019-05-29T15:36:43.279Z,37.70
2019-05-29T15:39:14.501Z,38.90
2019-05-29T15:41:43.322Z,37.50
2019-05-29T15:44:12.808Z,37.70
2019-05-29T15:46:41.464Z,37.70
2019-05-29T15:49:13.088Z,38.80
2019-05-29T15:51:41.755Z,38.70
2019-05-29T15:54:11.170Z,39.80
2019-05-29T15:56:40.159Z,39.70
2019-05-29T15:59:09.959Z,40.50
2019-05-29T16:01:39.264Z,42.10
2019-05-29T16:04:09.508Z,41.50
2019-05-29T16:06:43.639Z,41.20
2019-05-29T16:09:14.337Z,40.40
2019-05-29T16:11:43.108Z,40.70
2019-05-29T16:14:12.907Z,41.00
2019-05-29T16:16:41.531Z,42.80
2019-05-29T16:19:10.102Z,41.90
2019-05-29T16:21:38.704Z,41.30
2019-05-29T16:24:07.362Z,42.00
2019-05-29T16:27:07.971Z,41.20
2019-05-29T16:29:10.452Z,41.20
2019-05-29T16:31:41.944Z,41.20
2019-05-29T16:34:12.192Z,41.10
2019-05-29T16:36:40.926Z,41.80
2019-05-29T16:39:09.545Z,41.20
2019-05-29T16:41:38.501Z,42.20
2019-05-29T16:44:07.199Z,42.00
2019-05-29T16:46:35.691Z,41.80
2019-05-29T16:49:04.520Z,41.90
2019-05-29T16:51:33.072Z,42.40
2019-05-29T16:54:01.645Z,41.80
2019-05-29T16:56:30.133Z,42.80
2019-05-29T16:58:58.791Z,43.10
2019-05-29T17:01:27.524Z,44.60
2019-05-29T17:03:56.311Z,43.40
2019-05-29T17:06:24.869Z,44.60
2019-05-29T17:08:53.486Z,45.50
2019-05-29T17:11:23.539Z,45.90
2019-05-29T17:13:52.515Z,46.00
2019-05-29T17:16:22.723Z,46.30
2019-05-29T17:18:51.446Z,47.20
2019-05-29T17:21:22.784Z,47.70
2019-05-29T17:23:50.518Z,48.00
2019-05-29T17:26:20.837Z,48.70
2019-05-29T17:28:49.613Z,48.20
2019-05-29T17:31:20.881Z,48.20
2019-05-29T17:33:48.616Z,49.40
2019-05-29T17:36:17.424Z,49.10
2019-05-29T17:38:46.090Z,49.70
2019-05-29T17:41:15.274Z,49.90
2019-05-29T17:43:43.840Z,50.20
2019-05-29T17:46:15.303Z,50.40
2019-05-29T17:48:44.047Z,51.10
2019-05-29T17:51:12.621Z,51.50
2019-05-29T17:53:41.198Z,52.20
2019-05-29T17:56:23.325Z,53.00
2019-05-29T17:58:40.275Z,53.80
2019-05-29T18:01:08.899Z,54.20
2019-05-29T18:03:37.423Z,54.40
2019-05-29T18:06:06.163Z,54.80
2019-05-29T18:08:37.623Z,55.40
2019-05-29T18:11:06.244Z,55.80
2019-05-29T18:13:34.782Z,55.90
2019-05-29T18:16:03.306Z,56.60
2019-05-29T18:18:31.829Z,56.90
2019-05-29T18:21:00.407Z,57.10
2019-05-29T18:23:29.234Z,57.10
2019-05-29T18:25:57.799Z,57.20
2019-05-29T18:28:26.273Z,57.50
2019-05-29T18:30:55.131Z,57.50
2019-05-29T18:33:24.935Z,57.50
2019-05-29T18:35:53.670Z,57.80
2019-05-29T18:38:22.422Z,58.00
2019-05-29T18:40:51.019Z,58.10
2019-05-29T18:43:20.373Z,58.10
2019-05-29T18:45:49.024Z,58.00
2019-05-29T18:48:17.906Z,58.20
2019-05-29T18:50:46.662Z,58.30
2019-05-29T18:53:16.952Z,58.40
2019-05-29T18:55:45.638Z,58.40
2019-05-29T18:58:16.726Z,58.60
2019-05-29T19:00:47.177Z,58.80
2019-05-29T19:03:23.335Z,58.90
2019-05-29T19:05:56.265Z,58.90
2019-05-29T19:08:25.748Z,59.00
2019-05-29T19:10:57.192Z,59.00
2019-05-29T19:13:28.000Z,58.90
2019-05-29T19:15:58.210Z,59.10
2019-05-29T19:18:33.755Z,59.30
2019-05-29T19:20:59.239Z,59.40
2019-05-29T19:23:28.768Z,59.70
2019-05-29T19:25:57.414Z,60.20
2019-05-29T19:28:26.525Z,60.60
2019-05-29T19:30:55.467Z,60.70
2019-05-29T19:33:25.162Z,60.70
2019-05-29T19:35:53.843Z,60.50
2019-05-29T19:38:23.657Z,60.70
2019-05-29T19:40:52.612Z,61.20
2019-05-29T19:43:21.209Z,61.00
2019-05-29T19:45:49.700Z,61.30
2019-05-29T19:48:18.295Z,61.80
2019-05-29T19:50:48.685Z,61.60
2019-05-29T19:53:17.285Z,61.80
2019-05-29T19:55:45.945Z,62.40
2019-05-29T19:58:17.676Z,62.40
2019-05-29T20:00:46.217Z,62.20
2019-05-29T20:03:14.800Z,62.30
2019-05-29T20:05:43.512Z,62.30
2019-05-29T20:08:12.146Z,62.40
2019-05-29T20:10:40.719Z,62.20
2019-05-29T20:13:09.405Z,62.50
2019-05-29T20:15:38.145Z,62.70
2019-05-29T20:18:09.247Z,62.50
2019-05-29T20:20:38.729Z,62.20
2019-05-29T20:23:09.004Z,62.50
2019-05-29T20:25:39.043Z,62.60
2019-05-29T20:28:11.642Z,62.80
2019-05-29T20:30:38.731Z,63.10
2019-05-29T20:33:09.341Z,63.30
2019-05-29T20:35:40.559Z,63.30
2019-05-29T20:38:09.110Z,63.00
2019-05-29T20:40:37.742Z,62.80
2019-05-29T20:43:08.542Z,62.90
2019-05-29T20:45:37.634Z,62.90
2019-05-29T20:48:10.094Z,62.80
2019-05-29T20:50:39.127Z,63.20
2019-05-29T20:53:07.790Z,63.00
2019-05-29T20:55:36.268Z,63.20
2019-05-29T20:58:23.188Z,63.40
2019-05-29T21:00:44.267Z,63.00
2019-05-29T21:03:15.534Z,62.80
2019-05-29T21:05:44.020Z,62.70
2019-05-29T21:08:12.544Z,63.10
2019-05-29T21:10:42.019Z,63.10
2019-05-29T21:13:10.962Z,63.60
2019-05-29T21:15:43.753Z,63.70
2019-05-29T21:18:12.356Z,64.90
2019-05-29T21:20:42.523Z,64.50
2019-05-29T21:23:11.286Z,64.50
2019-05-29T21:25:40.714Z,64.50
2019-05-29T21:28:09.347Z,64.80
2019-05-29T21:30:37.899Z,64.90
2019-05-29T21:33:16.100Z,64.80
2019-05-29T21:35:44.656Z,64.90
2019-05-29T21:38:13.212Z,66.00
2019-05-29T21:40:44.550Z,66.00
2019-05-29T21:43:12.016Z,66.30
2019-05-29T21:45:41.045Z,66.70
2019-05-29T21:48:09.697Z,67.00
2019-05-29T21:50:39.107Z,67.50
2019-05-29T21:53:07.967Z,67.20
2019-05-29T21:55:39.511Z,67.40
2019-05-29T21:58:10.277Z,67.60
2019-05-29T22:00:49.131Z,67.90
2019-05-29T22:03:17.658Z,68.00
2019-05-29T22:05:46.814Z,67.90
2019-05-29T22:08:15.530Z,68.20
2019-05-29T22:10:44.522Z,68.30
2019-05-29T22:13:13.511Z,68.80
2019-05-29T22:15:42.073Z,69.30
2019-05-29T22:18:10.623Z,69.60
2019-05-29T22:20:39.346Z,69.20
2019-05-29T22:23:07.828Z,69.70
2019-05-29T22:28:15.727Z,70.60
2019-05-29T22:30:44.314Z,70.80
2019-05-29T22:33:12.780Z,71.10
2019-05-29T22:35:41.367Z,71.50
2019-05-29T22:38:09.951Z,71.60
2019-05-29T22:40:38.536Z,71.90
2019-05-29T22:43:07.424Z,72.10
2019-05-29T22:45:36.317Z,72.30
2019-05-29T22:48:04.975Z,72.60
2019-05-29T22:50:33.550Z,73.40
2019-05-29T22:53:02.197Z,73.10
2019-05-29T22:55:32.530Z,73.90
2019-05-29T22:58:02.114Z,74.30
2019-05-29T23:00:30.887Z,74.50
2019-05-29T23:03:00.190Z,74.40
2019-05-29T23:05:28.840Z,75.50
2019-05-29T23:07:58.234Z,74.90
2019-05-29T23:10:27.060Z,75.10
2019-05-29T23:12:56.392Z,75.10
2019-05-29T23:15:24.931Z,74.90
2019-05-29T23:17:54.534Z,75.00
2019-05-29T23:20:23.209Z,75.20
2019-05-29T23:22:52.594Z,75.20
2019-05-29T23:25:21.287Z,76.80
2019-05-29T23:27:49.780Z,76.60
2019-05-29T23:30:18.430Z,77.40
2019-05-29T23:32:46.989Z,78.10
2019-05-29T23:35:15.921Z,78.50
2019-05-29T23:37:44.428Z,79.10
2019-05-29T23:40:13.089Z,79.80
2019-05-29T23:42:41.578Z,80.60
2019-05-29T23:45:11.044Z,81.70
2019-05-29T23:47:39.599Z,81.80
2019-05-29T23:50:09.407Z,82.70
2019-05-29T23:52:38.329Z,83.20
2019-05-29T23:55:10.375Z,84.20
2019-05-29T23:57:39.027Z,84.70
